sensor_id;sensor_type;location;lat;lon;timestamp;P1;durP1;ratioP1;P2;durP2;ratioP2
67026;SDS011;53933;52.142;11.738;2022-10-16T00:01:14;12.13;;;1.88;;
67026;SDS011;53933;52.142;11.738;2022-10-16T00:03:43;4.85;;;1.50;;
67026;SDS011;53933;52.142;11.738;2022-10-16T00:06:11;4.40;;;1.20;;
67026;SDS011;53933;52.142;11.738;2022-10-16T00:08:38;15.55;;;1.85;;
67026;SDS011;53933;52.142;11.738;2022-10-16T00:11:07;11.93;;;1.58;;
67026;SDS011;53933;52.142;11.738;2022-10-16T00:13:37;8.57;;;2.03;;
67026;SDS011;53933;52.142;11.738;2022-10-16T00:16:04;12.68;;;1.02;;
67026;SDS011;53933;52.142;11.738;2022-10-16T00:18:32;11.02;;;1.60;;
67026;SDS011;53933;52.142;11.738;2022-10-16T00:21:03;1.10;;;1.00;;
67026;SDS011;53933;52.142;11.738;2022-10-16T00:23:31;5.65;;;1.42;;
67026;SDS011;53933;52.142;11.738;2022-10-16T00:25:59;6.85;;;1.50;;
67026;SDS011;53933;52.142;11.738;2022-10-16T00:28:29;8.95;;;1.15;;
67026;SDS011;53933;52.142;11.738;2022-10-16T00:30:56;3.05;;;1.45;;
67026;SDS011;53933;52.142;11.738;2022-10-16T00:33:23;13.23;;;1.48;;
67026;SDS011;53933;52.142;11.738;2022-10-16T00:35:50;12.23;;;1.92;;
67026;SDS011;53933;52.142;11.738;2022-10-16T00:38:17;6.72;;;1.42;;
67026;SDS011;53933;52.142;11.738;2022-10-16T00:40:44;7.10;;;1.25;;
67026;SDS011;53933;52.142;11.738;2022-10-16T00:43:12;1.80;;;1.25;;
67026;SDS011;53933;52.142;11.738;2022-10-16T00:45:41;3.28;;;1.20;;
67026;SDS011;53933;52.142;11.738;2022-10-16T00:48:10;3.05;;;1.33;;
67026;SDS011;53933;52.142;11.738;2022-10-16T00:50:39;3.72;;;1.00;;
67026;SDS011;53933;52.142;11.738;2022-10-16T00:53:08;6.72;;;1.58;;
67026;SDS011;53933;52.142;11.738;2022-10-16T00:55:36;4.72;;;1.50;;
67026;SDS011;53933;52.142;11.738;2022-10-16T00:58:03;5.75;;;1.08;;
67026;SDS011;53933;52.142;11.738;2022-10-16T01:00:29;8.25;;;1.25;;
67026;SDS011;53933;52.142;11.738;2022-10-16T01:02:58;11.50;;;1.00;;
67026;SDS011;53933;52.142;11.738;2022-10-16T01:05:28;8.07;;;1.45;;
67026;SDS011;53933;52.142;11.738;2022-10-16T01:08:01;4.55;;;1.20;;
67026;SDS011;53933;52.142;11.738;2022-10-16T01:10:35;6.40;;;1.10;;
67026;SDS011;53933;52.142;11.738;2022-10-16T01:13:05;3.92;;;1.33;;
67026;SDS011;53933;52.142;11.738;2022-10-16T01:15:34;3.40;;;1.20;;
67026;SDS011;53933;52.142;11.738;2022-10-16T01:18:05;3.70;;;1.13;;
67026;SDS011;53933;52.142;11.738;2022-10-16T01:20:37;1.75;;;1.08;;
67026;SDS011;53933;52.142;11.738;2022-10-16T01:23:10;5.78;;;1.27;;
67026;SDS011;53933;52.142;11.738;2022-10-16T01:25:54;1.10;;;0.98;;
67026;SDS011;53933;52.142;11.738;2022-10-16T01:28:36;2.60;;;1.17;;
67026;SDS011;53933;52.142;11.738;2022-10-16T01:31:07;3.42;;;1.55;;
67026;SDS011;53933;52.142;11.738;2022-10-16T01:33:38;2.35;;;1.17;;
67026;SDS011;53933;52.142;11.738;2022-10-16T01:36:09;6.85;;;1.02;;
67026;SDS011;53933;52.142;11.738;2022-10-16T01:38:39;5.05;;;1.75;;
67026;SDS011;53933;52.142;11.738;2022-10-16T01:41:09;4.47;;;1.40;;
67026;SDS011;53933;52.142;11.738;2022-10-16T01:43:40;3.50;;;0.90;;
67026;SDS011;53933;52.142;11.738;2022-10-16T01:46:11;5.18;;;1.25;;
67026;SDS011;53933;52.142;11.738;2022-10-16T01:48:40;14.70;;;1.52;;
67026;SDS011;53933;52.142;11.738;2022-10-16T01:51:08;9.10;;;1.60;;
67026;SDS011;53933;52.142;11.738;2022-10-16T01:53:37;17.70;;;1.55;;
67026;SDS011;53933;52.142;11.738;2022-10-16T01:56:06;15.65;;;2.05;;
67026;SDS011;53933;52.142;11.738;2022-10-16T01:58:36;22.52;;;1.40;;
67026;SDS011;53933;52.142;11.738;2022-10-16T02:01:07;8.05;;;1.20;;
67026;SDS011;53933;52.142;11.738;2022-10-16T02:03:37;11.45;;;1.73;;
67026;SDS011;53933;52.142;11.738;2022-10-16T02:06:08;3.13;;;0.73;;
67026;SDS011;53933;52.142;11.738;2022-10-16T02:08:35;4.68;;;1.10;;
67026;SDS011;53933;52.142;11.738;2022-10-16T02:11:04;5.15;;;1.08;;
67026;SDS011;53933;52.142;11.738;2022-10-16T02:13:31;7.40;;;1.20;;
67026;SDS011;53933;52.142;11.738;2022-10-16T02:16:03;4.47;;;1.17;;
67026;SDS011;53933;52.142;11.738;2022-10-16T02:18:31;8.75;;;1.38;;
67026;SDS011;53933;52.142;11.738;2022-10-16T02:20:59;3.22;;;1.27;;
67026;SDS011;53933;52.142;11.738;2022-10-16T02:23:30;9.10;;;1.33;;
67026;SDS011;53933;52.142;11.738;2022-10-16T02:26:03;7.15;;;1.30;;
67026;SDS011;53933;52.142;11.738;2022-10-16T02:28:34;4.72;;;1.40;;
67026;SDS011;53933;52.142;11.738;2022-10-16T02:31:04;7.03;;;1.70;;
67026;SDS011;53933;52.142;11.738;2022-10-16T02:33:36;3.97;;;1.38;;
67026;SDS011;53933;52.142;11.738;2022-10-16T02:36:05;5.20;;;1.35;;
67026;SDS011;53933;52.142;11.738;2022-10-16T02:38:32;7.03;;;1.30;;
67026;SDS011;53933;52.142;11.738;2022-10-16T02:40:59;4.18;;;1.60;;
67026;SDS011;53933;52.142;11.738;2022-10-16T02:43:26;3.88;;;1.33;;
67026;SDS011;53933;52.142;11.738;2022-10-16T02:45:53;5.70;;;1.70;;
67026;SDS011;53933;52.142;11.738;2022-10-16T02:48:20;7.47;;;1.40;;
67026;SDS011;53933;52.142;11.738;2022-10-16T02:50:48;3.63;;;1.60;;
67026;SDS011;53933;52.142;11.738;2022-10-16T02:53:16;3.10;;;1.70;;
67026;SDS011;53933;52.142;11.738;2022-10-16T02:55:42;4.85;;;2.03;;
67026;SDS011;53933;52.142;11.738;2022-10-16T02:58:09;2.63;;;1.60;;
67026;SDS011;53933;52.142;11.738;2022-10-16T03:00:36;2.42;;;1.42;;
67026;SDS011;53933;52.142;11.738;2022-10-16T03:03:02;3.83;;;1.30;;
67026;SDS011;53933;52.142;11.738;2022-10-16T03:05:29;3.47;;;1.83;;
67026;SDS011;53933;52.142;11.738;2022-10-16T03:07:57;8.82;;;1.80;;
67026;SDS011;53933;52.142;11.738;2022-10-16T03:10:25;2.92;;;1.75;;
67026;SDS011;53933;52.142;11.738;2022-10-16T03:12:52;5.05;;;1.67;;
67026;SDS011;53933;52.142;11.738;2022-10-16T03:15:18;2.97;;;1.67;;
67026;SDS011;53933;52.142;11.738;2022-10-16T03:17:45;3.55;;;1.73;;
67026;SDS011;53933;52.142;11.738;2022-10-16T03:20:12;3.35;;;1.75;;
67026;SDS011;53933;52.142;11.738;2022-10-16T03:22:38;5.75;;;1.55;;
67026;SDS011;53933;52.142;11.738;2022-10-16T03:25:07;7.10;;;1.75;;
67026;SDS011;53933;52.142;11.738;2022-10-16T03:27:34;1.90;;;1.30;;
67026;SDS011;53933;52.142;11.738;2022-10-16T03:30:00;2.90;;;1.40;;
67026;SDS011;53933;52.142;11.738;2022-10-16T03:32:27;5.45;;;1.98;;
67026;SDS011;53933;52.142;11.738;2022-10-16T03:34:54;3.20;;;1.60;;
67026;SDS011;53933;52.142;11.738;2022-10-16T03:37:21;3.70;;;1.23;;
67026;SDS011;53933;52.142;11.738;2022-10-16T03:39:48;2.50;;;1.48;;
67026;SDS011;53933;52.142;11.738;2022-10-16T03:42:16;1.48;;;1.35;;
67026;SDS011;53933;52.142;11.738;2022-10-16T03:44:43;5.47;;;1.60;;
67026;SDS011;53933;52.142;11.738;2022-10-16T03:47:10;2.95;;;1.50;;
67026;SDS011;53933;52.142;11.738;2022-10-16T03:49:36;6.20;;;1.45;;
67026;SDS011;53933;52.142;11.738;2022-10-16T03:52:03;5.53;;;1.70;;
67026;SDS011;53933;52.142;11.738;2022-10-16T03:54:30;1.45;;;1.15;;
67026;SDS011;53933;52.142;11.738;2022-10-16T03:56:56;4.25;;;1.63;;
67026;SDS011;53933;52.142;11.738;2022-10-16T03:59:24;3.17;;;1.35;;
67026;SDS011;53933;52.142;11.738;2022-10-16T04:01:51;2.92;;;1.40;;
67026;SDS011;53933;52.142;11.738;2022-10-16T04:04:18;2.50;;;1.20;;
67026;SDS011;53933;52.142;11.738;2022-10-16T04:06:44;2.25;;;1.20;;
67026;SDS011;53933;52.142;11.738;2022-10-16T04:09:11;8.13;;;1.50;;
67026;SDS011;53933;52.142;11.738;2022-10-16T04:11:38;4.65;;;1.52;;
67026;SDS011;53933;52.142;11.738;2022-10-16T04:14:05;3.55;;;1.30;;
67026;SDS011;53933;52.142;11.738;2022-10-16T04:16:33;6.38;;;1.65;;
67026;SDS011;53933;52.142;11.738;2022-10-16T04:18:59;1.90;;;1.02;;
67026;SDS011;53933;52.142;11.738;2022-10-16T04:21:26;2.70;;;1.40;;
67026;SDS011;53933;52.142;11.738;2022-10-16T04:23:53;4.65;;;1.15;;
67026;SDS011;53933;52.142;11.738;2022-10-16T04:26:19;4.95;;;1.20;;
67026;SDS011;53933;52.142;11.738;2022-10-16T04:28:46;4.18;;;1.55;;
67026;SDS011;53933;52.142;11.738;2022-10-16T04:31:13;3.13;;;1.27;;
67026;SDS011;53933;52.142;11.738;2022-10-16T04:33:43;2.00;;;1.00;;
67026;SDS011;53933;52.142;11.738;2022-10-16T04:36:10;3.35;;;1.33;;
67026;SDS011;53933;52.142;11.738;2022-10-16T04:38:36;4.82;;;1.27;;
67026;SDS011;53933;52.142;11.738;2022-10-16T04:41:04;5.65;;;1.23;;
67026;SDS011;53933;52.142;11.738;2022-10-16T04:43:31;2.15;;;0.90;;
67026;SDS011;53933;52.142;11.738;2022-10-16T04:45:59;4.95;;;1.10;;
67026;SDS011;53933;52.142;11.738;2022-10-16T04:48:26;2.17;;;0.90;;
67026;SDS011;53933;52.142;11.738;2022-10-16T04:50:54;1.65;;;1.20;;
67026;SDS011;53933;52.142;11.738;2022-10-16T04:53:21;6.10;;;1.08;;
67026;SDS011;53933;52.142;11.738;2022-10-16T04:55:48;1.55;;;1.00;;
67026;SDS011;53933;52.142;11.738;2022-10-16T04:58:15;3.03;;;0.95;;
67026;SDS011;53933;52.142;11.738;2022-10-16T05:00:42;1.10;;;1.00;;
67026;SDS011;53933;52.142;11.738;2022-10-16T05:03:11;2.33;;;1.00;;
67026;SDS011;53933;52.142;11.738;2022-10-16T05:05:41;1.33;;;1.02;;
67026;SDS011;53933;52.142;11.738;2022-10-16T05:08:10;4.70;;;1.00;;
67026;SDS011;53933;52.142;11.738;2022-10-16T05:10:37;7.50;;;0.90;;
67026;SDS011;53933;52.142;11.738;2022-10-16T05:13:04;3.95;;;0.98;;
67026;SDS011;53933;52.142;11.738;2022-10-16T05:15:31;2.90;;;1.10;;
67026;SDS011;53933;52.142;11.738;2022-10-16T05:17:57;1.92;;;1.00;;
67026;SDS011;53933;52.142;11.738;2022-10-16T05:20:24;3.50;;;1.40;;
67026;SDS011;53933;52.142;11.738;2022-10-16T05:22:51;1.40;;;0.70;;
67026;SDS011;53933;52.142;11.738;2022-10-16T05:25:20;2.97;;;0.93;;
67026;SDS011;53933;52.142;11.738;2022-10-16T05:27:47;2.20;;;1.02;;
67026;SDS011;53933;52.142;11.738;2022-10-16T05:30:14;6.30;;;1.17;;
67026;SDS011;53933;52.142;11.738;2022-10-16T05:32:41;2.15;;;0.90;;
67026;SDS011;53933;52.142;11.738;2022-10-16T05:35:08;2.13;;;1.10;;
67026;SDS011;53933;52.142;11.738;2022-10-16T05:37:34;1.35;;;0.88;;
67026;SDS011;53933;52.142;11.738;2022-10-16T05:40:01;1.02;;;0.80;;
67026;SDS011;53933;52.142;11.738;2022-10-16T05:42:31;4.80;;;0.90;;
67026;SDS011;53933;52.142;11.738;2022-10-16T05:44:57;1.45;;;1.00;;
67026;SDS011;53933;52.142;11.738;2022-10-16T05:47:24;1.88;;;0.98;;
67026;SDS011;53933;52.142;11.738;2022-10-16T05:49:51;4.10;;;1.02;;
67026;SDS011;53933;52.142;11.738;2022-10-16T05:52:18;3.97;;;1.17;;
67026;SDS011;53933;52.142;11.738;2022-10-16T05:54:45;7.18;;;1.17;;
67026;SDS011;53933;52.142;11.738;2022-10-16T05:57:11;5.07;;;1.40;;
67026;SDS011;53933;52.142;11.738;2022-10-16T05:59:39;3.63;;;1.25;;
67026;SDS011;53933;52.142;11.738;2022-10-16T06:02:07;4.28;;;1.25;;
67026;SDS011;53933;52.142;11.738;2022-10-16T06:04:37;3.45;;;1.35;;
67026;SDS011;53933;52.142;11.738;2022-10-16T06:07:04;7.28;;;1.20;;
67026;SDS011;53933;52.142;11.738;2022-10-16T06:09:31;5.60;;;1.10;;
67026;SDS011;53933;52.142;11.738;2022-10-16T06:11:57;3.30;;;1.15;;
67026;SDS011;53933;52.142;11.738;2022-10-16T06:14:24;7.72;;;1.17;;
67026;SDS011;53933;52.142;11.738;2022-10-16T06:16:52;9.73;;;1.33;;
67026;SDS011;53933;52.142;11.738;2022-10-16T06:19:19;3.22;;;1.00;;
67026;SDS011;53933;52.142;11.738;2022-10-16T06:21:46;3.28;;;1.20;;
67026;SDS011;53933;52.142;11.738;2022-10-16T06:24:13;4.82;;;0.70;;
67026;SDS011;53933;52.142;11.738;2022-10-16T06:26:39;5.05;;;0.90;;
67026;SDS011;53933;52.142;11.738;2022-10-16T06:29:06;5.28;;;1.05;;
67026;SDS011;53933;52.142;11.738;2022-10-16T06:31:34;2.40;;;1.00;;
67026;SDS011;53933;52.142;11.738;2022-10-16T06:34:02;1.58;;;0.93;;
67026;SDS011;53933;52.142;11.738;2022-10-16T06:36:30;1.25;;;1.10;;
67026;SDS011;53933;52.142;11.738;2022-10-16T06:38:57;1.40;;;1.00;;
67026;SDS011;53933;52.142;11.738;2022-10-16T06:41:24;3.63;;;1.30;;
67026;SDS011;53933;52.142;11.738;2022-10-16T06:43:50;4.47;;;1.10;;
67026;SDS011;53933;52.142;11.738;2022-10-16T06:46:19;5.95;;;1.55;;
67026;SDS011;53933;52.142;11.738;2022-10-16T06:48:46;5.50;;;1.50;;
67026;SDS011;53933;52.142;11.738;2022-10-16T06:51:15;2.58;;;1.38;;
67026;SDS011;53933;52.142;11.738;2022-10-16T06:53:43;5.00;;;1.02;;
67026;SDS011;53933;52.142;11.738;2022-10-16T06:56:13;1.92;;;1.00;;
67026;SDS011;53933;52.142;11.738;2022-10-16T06:58:41;7.22;;;1.30;;
67026;SDS011;53933;52.142;11.738;2022-10-16T07:01:08;4.32;;;1.20;;
67026;SDS011;53933;52.142;11.738;2022-10-16T07:03:36;4.90;;;1.67;;
67026;SDS011;53933;52.142;11.738;2022-10-16T07:06:04;7.13;;;1.30;;
67026;SDS011;53933;52.142;11.738;2022-10-16T07:08:33;2.92;;;1.23;;
67026;SDS011;53933;52.142;11.738;2022-10-16T07:11:02;5.88;;;2.03;;
67026;SDS011;53933;52.142;11.738;2022-10-16T07:13:32;2.88;;;1.20;;
67026;SDS011;53933;52.142;11.738;2022-10-16T07:16:03;3.42;;;1.42;;
67026;SDS011;53933;52.142;11.738;2022-10-16T07:18:30;7.45;;;1.65;;
67026;SDS011;53933;52.142;11.738;2022-10-16T07:21:02;7.70;;;1.60;;
67026;SDS011;53933;52.142;11.738;2022-10-16T07:23:29;6.07;;;2.03;;
67026;SDS011;53933;52.142;11.738;2022-10-16T07:25:57;10.52;;;1.88;;
67026;SDS011;53933;52.142;11.738;2022-10-16T07:28:24;3.28;;;1.35;;
67026;SDS011;53933;52.142;11.738;2022-10-16T07:30:51;4.25;;;1.23;;
67026;SDS011;53933;52.142;11.738;2022-10-16T07:33:17;2.72;;;1.35;;
67026;SDS011;53933;52.142;11.738;2022-10-16T07:35:48;3.85;;;1.85;;
67026;SDS011;53933;52.142;11.738;2022-10-16T07:38:15;1.63;;;1.30;;
67026;SDS011;53933;52.142;11.738;2022-10-16T07:40:44;3.28;;;1.90;;
67026;SDS011;53933;52.142;11.738;2022-10-16T07:43:12;2.70;;;1.30;;
67026;SDS011;53933;52.142;11.738;2022-10-16T07:45:46;31.08;;;2.65;;
67026;SDS011;53933;52.142;11.738;2022-10-16T07:48:14;25.95;;;3.05;;
67026;SDS011;53933;52.142;11.738;2022-10-16T07:50:41;33.15;;;4.43;;
67026;SDS011;53933;52.142;11.738;2022-10-16T07:53:08;48.97;;;5.55;;
67026;SDS011;53933;52.142;11.738;2022-10-16T07:55:35;32.10;;;3.97;;
67026;SDS011;53933;52.142;11.738;2022-10-16T07:58:02;25.70;;;3.42;;
67026;SDS011;53933;52.142;11.738;2022-10-16T08:00:30;14.85;;;2.70;;
67026;SDS011;53933;52.142;11.738;2022-10-16T08:02:57;24.05;;;2.13;;
67026;SDS011;53933;52.142;11.738;2022-10-16T08:05:25;14.50;;;2.30;;
67026;SDS011;53933;52.142;11.738;2022-10-16T08:07:52;17.80;;;2.42;;
67026;SDS011;53933;52.142;11.738;2022-10-16T08:10:19;10.57;;;2.10;;
67026;SDS011;53933;52.142;11.738;2022-10-16T08:12:47;15.50;;;2.25;;
67026;SDS011;53933;52.142;11.738;2022-10-16T08:15:14;14.65;;;2.95;;
67026;SDS011;53933;52.142;11.738;2022-10-16T08:17:42;11.65;;;1.58;;
67026;SDS011;53933;52.142;11.738;2022-10-16T08:20:09;6.25;;;1.63;;
67026;SDS011;53933;52.142;11.738;2022-10-16T08:22:37;14.85;;;1.95;;
67026;SDS011;53933;52.142;11.738;2022-10-16T08:25:04;43.53;;;3.22;;
67026;SDS011;53933;52.142;11.738;2022-10-16T08:27:31;16.13;;;2.15;;
67026;SDS011;53933;52.142;11.738;2022-10-16T08:29:58;14.43;;;2.17;;
67026;SDS011;53933;52.142;11.738;2022-10-16T08:32:25;12.57;;;2.00;;
67026;SDS011;53933;52.142;11.738;2022-10-16T08:34:53;5.70;;;1.77;;
67026;SDS011;53933;52.142;11.738;2022-10-16T08:37:19;18.20;;;1.83;;
67026;SDS011;53933;52.142;11.738;2022-10-16T08:39:46;10.90;;;1.60;;
67026;SDS011;53933;52.142;11.738;2022-10-16T08:42:16;3.65;;;1.40;;
67026;SDS011;53933;52.142;11.738;2022-10-16T08:47:46;4.22;;;1.30;;
67026;SDS011;53933;52.142;11.738;2022-10-16T08:50:23;4.47;;;1.10;;
67026;SDS011;53933;52.142;11.738;2022-10-16T08:52:53;3.58;;;1.20;;
67026;SDS011;53933;52.142;11.738;2022-10-16T08:55:25;3.17;;;1.08;;
67026;SDS011;53933;52.142;11.738;2022-10-16T08:58:00;4.93;;;1.17;;
67026;SDS011;53933;52.142;11.738;2022-10-16T09:00:27;3.72;;;0.98;;
67026;SDS011;53933;52.142;11.738;2022-10-16T09:02:56;3.00;;;1.30;;
67026;SDS011;53933;52.142;11.738;2022-10-16T09:05:41;5.13;;;1.27;;
67026;SDS011;53933;52.142;11.738;2022-10-16T09:08:31;3.92;;;1.05;;
67026;SDS011;53933;52.142;11.738;2022-10-16T09:11:03;2.40;;;1.38;;
67026;SDS011;53933;52.142;11.738;2022-10-16T09:13:41;3.47;;;1.23;;
67026;SDS011;53933;52.142;11.738;2022-10-16T09:16:15;2.10;;;0.90;;
67026;SDS011;53933;52.142;11.738;2022-10-16T09:18:47;4.05;;;0.85;;
67026;SDS011;53933;52.142;11.738;2022-10-16T09:21:20;2.53;;;0.98;;
67026;SDS011;53933;52.142;11.738;2022-10-16T09:23:49;2.30;;;1.00;;
67026;SDS011;53933;52.142;11.738;2022-10-16T09:26:17;1.95;;;1.02;;
67026;SDS011;53933;52.142;11.738;2022-10-16T09:28:44;7.05;;;1.10;;
67026;SDS011;53933;52.142;11.738;2022-10-16T09:31:18;3.83;;;0.98;;
67026;SDS011;53933;52.142;11.738;2022-10-16T09:33:47;2.95;;;0.80;;
67026;SDS011;53933;52.142;11.738;2022-10-16T09:36:16;2.00;;;0.90;;
67026;SDS011;53933;52.142;11.738;2022-10-16T09:38:45;1.55;;;0.90;;
67026;SDS011;53933;52.142;11.738;2022-10-16T09:41:14;3.00;;;0.93;;
67026;SDS011;53933;52.142;11.738;2022-10-16T09:43:46;3.08;;;1.00;;
67026;SDS011;53933;52.142;11.738;2022-10-16T09:46:27;2.35;;;0.90;;
67026;SDS011;53933;52.142;11.738;2022-10-16T09:48:56;1.13;;;0.85;;
67026;SDS011;53933;52.142;11.738;2022-10-16T09:51:24;1.67;;;0.60;;
67026;SDS011;53933;52.142;11.738;2022-10-16T09:53:58;2.97;;;0.70;;
67026;SDS011;53933;52.142;11.738;2022-10-16T09:56:26;1.08;;;0.60;;
67026;SDS011;53933;52.142;11.738;2022-10-16T09:58:55;14.82;;;0.88;;
67026;SDS011;53933;52.142;11.738;2022-10-16T10:01:24;2.53;;;0.88;;
67026;SDS011;53933;52.142;11.738;2022-10-16T10:03:55;2.38;;;0.93;;
67026;SDS011;53933;52.142;11.738;2022-10-16T10:06:26;2.40;;;0.70;;
67026;SDS011;53933;52.142;11.738;2022-10-16T10:08:58;3.20;;;1.02;;
67026;SDS011;53933;52.142;11.738;2022-10-16T10:11:40;2.97;;;0.88;;
67026;SDS011;53933;52.142;11.738;2022-10-16T10:14:14;2.13;;;0.82;;
67026;SDS011;53933;52.142;11.738;2022-10-16T10:16:44;15.53;;;2.40;;
67026;SDS011;53933;52.142;11.738;2022-10-16T10:19:15;5.10;;;1.20;;
67026;SDS011;53933;52.142;11.738;2022-10-16T10:21:42;3.92;;;1.25;;
67026;SDS011;53933;52.142;11.738;2022-10-16T10:24:11;8.73;;;1.23;;
67026;SDS011;53933;52.142;11.738;2022-10-16T10:26:40;3.33;;;1.15;;
67026;SDS011;53933;52.142;11.738;2022-10-16T10:29:14;11.07;;;1.17;;
67026;SDS011;53933;52.142;11.738;2022-10-16T10:31:47;10.20;;;1.17;;
67026;SDS011;53933;52.142;11.738;2022-10-16T10:34:25;9.07;;;1.30;;
67026;SDS011;53933;52.142;11.738;2022-10-16T10:37:04;8.35;;;0.98;;
67026;SDS011;53933;52.142;11.738;2022-10-16T10:39:42;21.48;;;1.92;;
67026;SDS011;53933;52.142;11.738;2022-10-16T10:42:15;5.25;;;1.40;;
67026;SDS011;53933;52.142;11.738;2022-10-16T10:44:56;6.45;;;1.38;;
67026;SDS011;53933;52.142;11.738;2022-10-16T10:47:42;9.70;;;0.98;;
67026;SDS011;53933;52.142;11.738;2022-10-16T10:50:18;5.00;;;1.00;;
67026;SDS011;53933;52.142;11.738;2022-10-16T10:52:52;2.08;;;0.93;;
67026;SDS011;53933;52.142;11.738;2022-10-16T10:55:28;9.00;;;1.35;;
67026;SDS011;53933;52.142;11.738;2022-10-16T10:58:12;3.03;;;0.85;;
67026;SDS011;53933;52.142;11.738;2022-10-16T11:01:01;2.25;;;1.08;;
67026;SDS011;53933;52.142;11.738;2022-10-16T11:03:41;7.72;;;1.30;;
67026;SDS011;53933;52.142;11.738;2022-10-16T11:06:25;3.65;;;1.17;;
67026;SDS011;53933;52.142;11.738;2022-10-16T11:08:55;14.50;;;1.63;;
67026;SDS011;53933;52.142;11.738;2022-10-16T11:11:30;6.13;;;1.50;;
67026;SDS011;53933;52.142;11.738;2022-10-16T11:14:01;11.35;;;1.67;;
67026;SDS011;53933;52.142;11.738;2022-10-16T11:16:31;12.38;;;2.63;;
67026;SDS011;53933;52.142;11.738;2022-10-16T11:19:02;12.45;;;2.40;;
67026;SDS011;53933;52.142;11.738;2022-10-16T11:21:39;10.27;;;1.80;;
67026;SDS011;53933;52.142;11.738;2022-10-16T11:24:14;25.77;;;2.88;;
67026;SDS011;53933;52.142;11.738;2022-10-16T11:26:48;12.00;;;2.33;;
67026;SDS011;53933;52.142;11.738;2022-10-16T11:29:16;9.82;;;1.75;;
67026;SDS011;53933;52.142;11.738;2022-10-16T11:31:48;8.45;;;1.95;;
67026;SDS011;53933;52.142;11.738;2022-10-16T11:34:21;9.13;;;1.88;;
67026;SDS011;53933;52.142;11.738;2022-10-16T11:36:51;9.93;;;2.25;;
67026;SDS011;53933;52.142;11.738;2022-10-16T11:39:22;12.35;;;1.95;;
67026;SDS011;53933;52.142;11.738;2022-10-16T11:41:54;9.90;;;1.77;;
67026;SDS011;53933;52.142;11.738;2022-10-16T11:44:32;10.30;;;2.50;;
67026;SDS011;53933;52.142;11.738;2022-10-16T11:47:10;9.07;;;1.48;;
67026;SDS011;53933;52.142;11.738;2022-10-16T11:49:45;14.93;;;2.08;;
67026;SDS011;53933;52.142;11.738;2022-10-16T11:52:17;6.15;;;1.23;;
67026;SDS011;53933;52.142;11.738;2022-10-16T11:54:50;7.25;;;1.58;;
67026;SDS011;53933;52.142;11.738;2022-10-16T11:57:24;7.90;;;1.58;;
67026;SDS011;53933;52.142;11.738;2022-10-16T11:59:54;7.55;;;1.63;;
67026;SDS011;53933;52.142;11.738;2022-10-16T12:02:32;14.10;;;2.20;;
67026;SDS011;53933;52.142;11.738;2022-10-16T12:05:11;11.02;;;1.95;;
67026;SDS011;53933;52.142;11.738;2022-10-16T12:07:49;8.50;;;1.73;;
67026;SDS011;53933;52.142;11.738;2022-10-16T12:10:23;9.30;;;1.73;;
67026;SDS011;53933;52.142;11.738;2022-10-16T12:12:53;11.82;;;1.75;;
67026;SDS011;53933;52.142;11.738;2022-10-16T12:15:22;5.30;;;1.83;;
67026;SDS011;53933;52.142;11.738;2022-10-16T12:17:51;7.13;;;1.35;;
67026;SDS011;53933;52.142;11.738;2022-10-16T12:20:22;8.20;;;1.48;;
67026;SDS011;53933;52.142;11.738;2022-10-16T12:22:52;7.18;;;1.60;;
67026;SDS011;53933;52.142;11.738;2022-10-16T12:25:21;3.17;;;1.20;;
67026;SDS011;53933;52.142;11.738;2022-10-16T12:28:04;3.08;;;1.20;;
67026;SDS011;53933;52.142;11.738;2022-10-16T12:30:33;6.57;;;1.25;;
67026;SDS011;53933;52.142;11.738;2022-10-16T12:33:02;3.13;;;1.20;;
67026;SDS011;53933;52.142;11.738;2022-10-16T12:35:32;7.07;;;1.38;;
67026;SDS011;53933;52.142;11.738;2022-10-16T12:38:07;6.35;;;1.60;;
67026;SDS011;53933;52.142;11.738;2022-10-16T12:40:40;3.88;;;1.15;;
67026;SDS011;53933;52.142;11.738;2022-10-16T12:46:03;7.75;;;1.20;;
67026;SDS011;53933;52.142;11.738;2022-10-16T12:48:31;4.10;;;1.35;;
67026;SDS011;53933;52.142;11.738;2022-10-16T12:51:09;3.17;;;1.00;;
67026;SDS011;53933;52.142;11.738;2022-10-16T12:53:36;8.20;;;1.20;;
67026;SDS011;53933;52.142;11.738;2022-10-16T12:56:04;5.43;;;1.25;;
67026;SDS011;53933;52.142;11.738;2022-10-16T12:58:45;3.42;;;1.08;;
67026;SDS011;53933;52.142;11.738;2022-10-16T13:01:22;3.25;;;1.10;;
67026;SDS011;53933;52.142;11.738;2022-10-16T13:04:04;5.25;;;1.23;;
67026;SDS011;53933;52.142;11.738;2022-10-16T13:06:58;4.57;;;1.13;;
67026;SDS011;53933;52.142;11.738;2022-10-16T13:09:38;5.75;;;1.10;;
67026;SDS011;53933;52.142;11.738;2022-10-16T13:12:15;4.70;;;1.27;;
67026;SDS011;53933;52.142;11.738;2022-10-16T13:14:55;4.03;;;1.33;;
67026;SDS011;53933;52.142;11.738;2022-10-16T13:17:41;2.78;;;1.08;;
67026;SDS011;53933;52.142;11.738;2022-10-16T13:20:16;5.45;;;1.50;;
67026;SDS011;53933;52.142;11.738;2022-10-16T13:22:51;4.60;;;1.27;;
67026;SDS011;53933;52.142;11.738;2022-10-16T13:25:30;4.53;;;1.40;;
67026;SDS011;53933;52.142;11.738;2022-10-16T13:28:05;3.90;;;1.00;;
67026;SDS011;53933;52.142;11.738;2022-10-16T13:30:37;3.70;;;1.10;;
67026;SDS011;53933;52.142;11.738;2022-10-16T13:33:06;5.15;;;1.35;;
67026;SDS011;53933;52.142;11.738;2022-10-16T13:35:46;6.13;;;1.20;;
67026;SDS011;53933;52.142;11.738;2022-10-16T13:38:16;5.40;;;1.15;;
67026;SDS011;53933;52.142;11.738;2022-10-16T13:40:51;2.58;;;1.00;;
67026;SDS011;53933;52.142;11.738;2022-10-16T13:43:21;1.52;;;0.93;;
67026;SDS011;53933;52.142;11.738;2022-10-16T13:45:56;1.65;;;0.90;;
67026;SDS011;53933;52.142;11.738;2022-10-16T13:48:24;3.08;;;1.05;;
67026;SDS011;53933;52.142;11.738;2022-10-16T13:51:00;5.60;;;0.90;;
67026;SDS011;53933;52.142;11.738;2022-10-16T13:53:30;2.15;;;0.90;;
67026;SDS011;53933;52.142;11.738;2022-10-16T13:55:57;1.63;;;1.10;;
67026;SDS011;53933;52.142;11.738;2022-10-16T13:58:26;1.45;;;0.73;;
67026;SDS011;53933;52.142;11.738;2022-10-16T14:00:53;3.85;;;1.08;;
67026;SDS011;53933;52.142;11.738;2022-10-16T14:03:23;4.10;;;1.10;;
67026;SDS011;53933;52.142;11.738;2022-10-16T14:05:52;1.67;;;0.90;;
67026;SDS011;53933;52.142;11.738;2022-10-16T14:08:21;1.00;;;0.50;;
67026;SDS011;53933;52.142;11.738;2022-10-16T14:10:50;2.42;;;0.90;;
67026;SDS011;53933;52.142;11.738;2022-10-16T14:13:19;2.75;;;0.77;;
67026;SDS011;53933;52.142;11.738;2022-10-16T14:15:50;3.97;;;0.80;;
67026;SDS011;53933;52.142;11.738;2022-10-16T14:18:21;2.55;;;0.93;;
67026;SDS011;53933;52.142;11.738;2022-10-16T14:20:50;3.28;;;1.10;;
67026;SDS011;53933;52.142;11.738;2022-10-16T14:23:22;1.27;;;0.60;;
67026;SDS011;53933;52.142;11.738;2022-10-16T14:25:54;1.48;;;1.08;;
67026;SDS011;53933;52.142;11.738;2022-10-16T14:28:31;2.38;;;1.08;;
67026;SDS011;53933;52.142;11.738;2022-10-16T14:30:58;1.38;;;0.77;;
67026;SDS011;53933;52.142;11.738;2022-10-16T14:33:32;4.85;;;0.80;;
67026;SDS011;53933;52.142;11.738;2022-10-16T14:36:01;1.05;;;0.82;;
67026;SDS011;53933;52.142;11.738;2022-10-16T14:38:30;1.33;;;0.82;;
67026;SDS011;53933;52.142;11.738;2022-10-16T14:40:57;1.90;;;0.73;;
67026;SDS011;53933;52.142;11.738;2022-10-16T14:43:28;2.72;;;0.85;;
67026;SDS011;53933;52.142;11.738;2022-10-16T14:45:58;1.65;;;0.95;;
67026;SDS011;53933;52.142;11.738;2022-10-16T14:48:26;3.58;;;1.05;;
67026;SDS011;53933;52.142;11.738;2022-10-16T14:50:54;2.05;;;0.65;;
67026;SDS011;53933;52.142;11.738;2022-10-16T14:53:21;1.20;;;0.90;;
67026;SDS011;53933;52.142;11.738;2022-10-16T14:55:47;1.63;;;0.88;;